Time;durP1;ratioP1;P1;durP2;ratioP2;P2;SDS_P1;SDS_P2;PMS_P1;PMS_P2;Temp;Humidity;BMP_temperature;BMP_pressure;BME280_temperature;BME280_humidity;BME280_pressure;Samples;Min_cycle;Max_cycle;Signal;HPM_P1;HPM_P2
2023/08/25 00:02:15;;;;;;;6.00;1.90;;;41.40;43.90;;;;;;5048587;28;20061;-59
2023/08/25 00:04:42;;;;;;;2.97;1.60;;;41.40;44.50;;;;;;5049465;28;20013;-56
2023/08/25 00:07:08;;;;;;;9.70;1.95;;;41.40;44.20;;;;;;5048843;28;20459;-55
2023/08/25 00:09:36;;;;;;;13.00;2.38;;;41.40;44.50;;;;;;5048752;28;20021;-58
2023/08/25 00:12:03;;;;;;;7.97;1.70;;;41.30;44.50;;;;;;5048159;28;20070;-62
2023/08/25 00:14:29;;;;;;;10.85;2.15;;;41.00;45.00;;;;;;5048238;28;20017;-60
2023/08/25 00:16:56;;;;;;;9.27;2.30;;;40.90;45.20;;;;;;5047495;28;20493;-59
2023/08/25 00:19:22;;;;;;;8.52;2.25;;;40.70;44.80;;;;;;5050473;28;20473;-58
2023/08/25 00:21:48;;;;;;;9.05;2.60;;;40.70;45.40;;;;;;5050747;28;20021;-59
2023/08/25 00:24:15;;;;;;;14.35;2.08;;;40.60;45.20;;;;;;5051441;28;20013;-60
2023/08/25 00:26:42;;;;;;;10.55;2.35;;;40.50;45.50;;;;;;5047145;28;20012;-59
2023/08/25 00:29:08;;;;;;;8.63;2.00;;;40.50;45.90;;;;;;5051476;28;20088;-59
2023/08/25 00:31:34;;;;;;;8.32;2.00;;;40.50;46.10;;;;;;5051034;28;20021;-59
2023/08/25 00:34:04;;;;;;;9.30;1.88;;;40.40;47.10;;;;;;5054281;28;20477;-57
2023/08/25 00:36:31;;;;;;;9.43;2.58;;;40.40;47.20;;;;;;5049526;28;20075;-61
2023/08/25 00:38:57;;;;;;;5.30;2.03;;;40.30;46.50;;;;;;5048341;28;20091;-58
2023/08/25 00:41:24;;;;;;;7.97;2.30;;;40.30;46.60;;;;;;5048512;28;20009;-59
2023/08/25 00:43:50;;;;;;;11.13;2.15;;;40.20;46.40;;;;;;5053381;28;20559;-59
2023/08/25 00:46:19;;;;;;;5.35;2.20;;;40.10;46.30;;;;;;5050427;28;20024;-59
2023/08/25 00:48:45;;;;;;;13.35;1.90;;;40.10;46.50;;;;;;5048813;28;20024;-59
2023/08/25 00:51:12;;;;;;;9.15;1.95;;;40.10;47.50;;;;;;5053083;28;20013;-56
2023/08/25 00:53:40;;;;;;;5.68;2.22;;;40.10;46.90;;;;;;5053728;28;20025;-58
2023/08/25 00:56:08;;;;;;;7.05;2.15;;;40.00;46.80;;;;;;5048189;28;20081;-63
2023/08/25 00:58:35;;;;;;;8.13;2.20;;;40.00;46.80;;;;;;5051082;28;21056;-57
2023/08/25 01:01:04;;;;;;;21.27;2.83;;;40.00;47.40;;;;;;5050323;28;20044;-59
2023/08/25 01:03:30;;;;;;;10.27;2.22;;;40.00;47.60;;;;;;5046868;28;20016;-59
2023/08/25 01:05:57;;;;;;;8.10;2.30;;;39.90;46.90;;;;;;5048531;28;20473;-60
2023/08/25 01:08:24;;;;;;;36.63;2.88;;;39.90;47.20;;;;;;5045995;28;20116;-60
2023/08/25 01:10:59;;;;;;;15.75;2.25;;;39.80;47.40;;;;;;5051086;28;20330;-60
2023/08/25 01:14:04;;;;;;;8.65;2.15;;;39.80;47.10;;;;;;5045468;28;20366;-59
2023/08/25 01:16:44;;;;;;;6.30;2.05;;;39.70;47.40;;;;;;5049488;28;20025;-63
2023/08/25 01:19:37;;;;;;;7.50;2.08;;;39.60;48.00;;;;;;5044845;28;20114;-63
2023/08/25 01:22:13;;;;;;;14.27;2.28;;;39.60;48.30;;;;;;5049437;28;20008;-58
2023/08/25 01:24:41;;;;;;;12.73;2.85;;;39.50;47.20;;;;;;5043167;28;20013;-61
2023/08/25 01:27:09;;;;;;;6.32;2.05;;;39.50;47.60;;;;;;5041657;28;20036;-61
2023/08/25 01:29:39;;;;;;;9.02;3.35;;;39.40;47.50;;;;;;5045112;28;20404;-61
2023/08/25 01:32:06;;;;;;;7.82;2.70;;;39.40;48.50;;;;;;5046019;28;20544;-61
2023/08/25 01:34:33;;;;;;;12.93;6.90;;;39.30;48.10;;;;;;5048483;28;20105;-56
2023/08/25 01:37:03;;;;;;;9.25;4.68;;;39.30;48.70;;;;;;5042522;28;20044;-60
2023/08/25 01:39:31;;;;;;;9.13;3.15;;;39.20;48.50;;;;;;5042654;28;20025;-60
2023/08/25 01:42:03;;;;;;;9.50;2.70;;;39.10;48.70;;;;;;5047395;28;20111;-62
2023/08/25 01:44:31;;;;;;;10.43;2.33;;;39.10;48.10;;;;;;5047435;28;20021;-60
2023/08/25 01:47:03;;;;;;;7.95;1.98;;;39.10;47.80;;;;;;5047567;28;20025;-61
2023/08/25 01:49:31;;;;;;;7.05;2.20;;;39.00;47.60;;;;;;5053013;28;20021;-60
2023/08/25 01:51:59;;;;;;;4.03;1.80;;;39.00;47.50;;;;;;5053144;28;20013;-62
2023/08/25 01:54:26;;;;;;;8.93;2.20;;;38.90;47.80;;;;;;5047988;28;20016;-60
2023/08/25 01:56:52;;;;;;;13.57;2.85;;;38.90;47.80;;;;;;5047018;28;20373;-61
2023/08/25 01:59:19;;;;;;;13.70;2.78;;;38.80;48.40;;;;;;5046686;28;20500;-62
2023/08/25 02:01:45;;;;;;;7.57;2.50;;;38.70;48.80;;;;;;5049357;28;20045;-60
2023/08/25 02:04:12;;;;;;;12.07;2.60;;;38.60;49.20;;;;;;5047539;28;20017;-59
2023/08/25 02:06:38;;;;;;;15.52;2.85;;;38.60;49.10;;;;;;5050596;28;20032;-58
2023/08/25 02:09:04;;;;;;;11.02;2.50;;;38.50;48.30;;;;;;5046674;28;20099;-61
2023/08/25 02:11:31;;;;;;;11.27;2.45;;;38.50;48.40;;;;;;5046858;28;20029;-60
2023/08/25 02:13:57;;;;;;;10.10;2.88;;;38.40;48.10;;;;;;5047528;28;20029;-62
2023/08/25 02:16:24;;;;;;;11.95;2.47;;;38.40;48.40;;;;;;5046544;28;20036;-61
2023/08/25 02:18:50;;;;;;;15.68;2.60;;;38.40;48.90;;;;;;5050685;28;20024;-60
2023/08/25 02:21:17;;;;;;;7.53;1.95;;;38.30;49.10;;;;;;5045360;28;20496;-62
2023/08/25 02:23:43;;;;;;;10.25;2.22;;;38.30;48.70;;;;;;5048793;28;20066;-62
2023/08/25 02:26:10;;;;;;;11.32;2.28;;;38.20;48.90;;;;;;5050336;28;20029;-60
2023/08/25 02:28:36;;;;;;;12.93;2.35;;;38.20;48.90;;;;;;5047614;28;20016;-62
2023/08/25 02:31:02;;;;;;;15.13;2.67;;;38.10;49.20;;;;;;5049672;28;20029;-62
2023/08/25 02:33:29;;;;;;;11.18;2.60;;;38.10;49.50;;;;;;5045336;28;20481;-61
2023/08/25 02:35:55;;;;;;;10.73;2.75;;;38.00;49.90;;;;;;5051048;28;20033;-62
2023/08/25 02:38:21;;;;;;;10.68;2.70;;;38.00;50.20;;;;;;5046372;28;20175;-60
2023/08/25 02:40:49;;;;;;;10.82;3.50;;;38.00;50.40;;;;;;5046526;28;20013;-61
2023/08/25 02:43:16;;;;;;;17.13;3.17;;;37.80;50.60;;;;;;5044083;28;20354;-62
2023/08/25 02:45:42;;;;;;;18.83;3.38;;;37.80;50.90;;;;;;5049546;28;20028;-61
2023/08/25 02:48:09;;;;;;;13.65;3.47;;;37.70;50.70;;;;;;5046876;28;20389;-61
2023/08/25 02:50:36;;;;;;;16.20;3.55;;;37.60;50.70;;;;;;5048971;28;20043;-60
2023/08/25 02:53:02;;;;;;;19.15;3.35;;;37.60;50.80;;;;;;5051607;28;20020;-60
2023/08/25 02:55:30;;;;;;;20.33;4.30;;;37.50;51.10;;;;;;5052927;28;20376;-62
2023/08/25 02:57:56;;;;;;;18.80;4.15;;;37.50;51.10;;;;;;5052088;28;20012;-61
2023/08/25 03:00:25;;;;;;;25.15;5.05;;;37.40;51.50;;;;;;5050078;28;20045;-60
2023/08/25 03:02:53;;;;;;;21.17;4.97;;;37.40;52.10;;;;;;5049021;28;20029;-59
2023/08/25 03:05:21;;;;;;;28.15;4.40;;;37.30;51.80;;;;;;5049119;28;20024;-60
2023/08/25 03:07:51;;;;;;;21.35;4.05;;;37.30;52.10;;;;;;5050728;28;20013;-60
2023/08/25 03:10:17;;;;;;;26.23;4.78;;;37.20;52.10;;;;;;5049114;28;20016;-60
2023/08/25 03:12:44;;;;;;;28.48;5.10;;;37.20;52.10;;;;;;5049093;28;20021;-61
2023/08/25 03:15:10;;;;;;;26.02;5.22;;;37.10;52.50;;;;;;5046935;28;20048;-61
2023/08/25 03:17:37;;;;;;;42.08;5.65;;;37.00;53.10;;;;;;5049977;28;20496;-60
2023/08/25 03:20:04;;;;;;;40.63;5.32;;;37.00;52.90;;;;;;5050753;28;20135;-61
2023/08/25 03:22:30;;;;;;;28.73;5.15;;;36.90;52.70;;;;;;5049207;28;20473;-61
2023/08/25 03:24:57;;;;;;;27.23;5.57;;;36.90;53.00;;;;;;5052084;28;20497;-60
2023/08/25 03:27:23;;;;;;;28.80;5.32;;;36.80;53.30;;;;;;5049570;28;21651;-60
2023/08/25 03:29:50;;;;;;;39.63;6.13;;;36.80;53.10;;;;;;5048174;28;20020;-60
2023/08/25 03:32:16;;;;;;;35.25;5.70;;;36.80;53.40;;;;;;5051997;28;20472;-60
2023/08/25 03:34:42;;;;;;;38.10;6.20;;;36.70;53.40;;;;;;5050241;28;20017;-60
2023/08/25 03:37:11;;;;;;;52.13;7.47;;;36.70;53.60;;;;;;5048733;28;20024;-61
2023/08/25 03:39:37;;;;;;;56.10;8.07;;;36.60;53.60;;;;;;5051256;28;20338;-60
2023/08/25 03:42:04;;;;;;;57.08;8.68;;;36.60;53.30;;;;;;5051466;28;20029;-59
2023/08/25 03:44:30;;;;;;;67.43;7.97;;;36.70;53.20;;;;;;5048873;28;20025;-57
2023/08/25 03:46:57;;;;;;;54.67;7.95;;;36.70;53.40;;;;;;5048773;28;20084;-59
2023/08/25 03:49:27;;;;;;;33.80;5.97;;;36.70;53.40;;;;;;5050923;28;20051;-60
2023/08/25 03:51:54;;;;;;;36.22;6.22;;;36.70;53.30;;;;;;5051896;28;20027;-61
2023/08/25 03:54:21;;;;;;;35.63;5.35;;;36.70;53.60;;;;;;5057060;28;20431;-61
2023/08/25 03:56:47;;;;;;;24.13;4.78;;;36.60;54.10;;;;;;5051234;28;20028;-60
2023/08/25 03:59:14;;;;;;;24.83;5.15;;;36.70;54.20;;;;;;5047811;28;20059;-60
2023/08/25 04:01:40;;;;;;;26.30;5.35;;;36.60;54.20;;;;;;5048249;28;20043;-60
2023/08/25 04:04:06;;;;;;;18.00;4.88;;;36.60;54.00;;;;;;5047339;28;21805;-60
2023/08/25 04:06:33;;;;;;;10.60;4.03;;;36.60;52.80;;;;;;5049306;28;20388;-60
2023/08/25 04:08:59;;;;;;;12.57;4.43;;;36.50;51.80;;;;;;5052595;28;20028;-59
2023/08/25 04:11:26;;;;;;;11.40;5.25;;;36.50;51.60;;;;;;5048899;28;20139;-61
2023/08/25 04:13:52;;;;;;;11.68;4.45;;;36.40;51.70;;;;;;5050081;28;20499;-60
2023/08/25 04:16:18;;;;;;;15.20;4.63;;;36.50;51.40;;;;;;5049590;28;20550;-62
2023/08/25 04:18:45;;;;;;;13.23;5.28;;;36.50;51.40;;;;;;5048639;28;20017;-62
2023/08/25 04:21:11;;;;;;;11.95;4.75;;;36.40;52.00;;;;;;5056948;28;20037;-61
2023/08/25 04:23:37;;;;;;;9.90;4.90;;;36.40;51.60;;;;;;5050169;28;20036;-61
2023/08/25 04:26:04;;;;;;;10.57;4.95;;;36.30;52.00;;;;;;5049510;28;20017;-61
2023/08/25 04:28:30;;;;;;;11.77;4.68;;;36.30;51.80;;;;;;5047554;28;20028;-60
2023/08/25 04:30:57;;;;;;;13.63;5.03;;;36.20;51.70;;;;;;5048266;28;20017;-61
2023/08/25 04:33:23;;;;;;;13.48;5.00;;;36.20;51.90;;;;;;5048667;28;20135;-60
2023/08/25 04:35:50;;;;;;;7.38;4.28;;;36.20;52.10;;;;;;5048639;28;20112;-59
2023/08/25 04:38:16;;;;;;;12.38;4.40;;;36.10;52.10;;;;;;5045921;28;20013;-60
2023/08/25 04:40:43;;;;;;;10.52;4.32;;;36.00;52.10;;;;;;5048034;28;20531;-60
2023/08/25 04:43:09;;;;;;;18.92;5.20;;;35.90;52.40;;;;;;5048875;28;20433;-63
2023/08/25 04:45:36;;;;;;;9.93;4.75;;;35.90;52.70;;;;;;5047883;28;20013;-62
2023/08/25 04:48:02;;;;;;;15.00;4.75;;;35.80;52.60;;;;;;5046947;28;20545;-59
2023/08/25 04:50:29;;;;;;;10.95;4.30;;;35.70;53.00;;;;;;5045468;28;20025;-61
2023/08/25 04:52:55;;;;;;;13.70;4.40;;;35.70;52.80;;;;;;5046394;28;20520;-61
2023/08/25 04:55:22;;;;;;;19.27;4.50;;;35.70;53.20;;;;;;5051389;28;20489;-60
2023/08/25 04:57:48;;;;;;;11.32;4.50;;;35.60;52.90;;;;;;5047330;28;20378;-59
2023/08/25 05:00:15;;;;;;;12.15;4.15;;;35.60;53.00;;;;;;5049103;28;20078;-61
2023/08/25 05:02:41;;;;;;;15.13;5.18;;;35.60;52.90;;;;;;5050935;28;20037;-59
2023/08/25 05:05:11;;;;;;;10.38;4.65;;;35.50;53.30;;;;;;5047378;28;20020;-59
2023/08/25 05:07:38;;;;;;;13.02;5.07;;;35.50;53.50;;;;;;5050803;28;20079;-60
2023/08/25 05:10:05;;;;;;;15.77;4.80;;;35.40;53.80;;;;;;5047844;28;20453;-62
2023/08/25 05:12:32;;;;;;;10.40;4.50;;;35.40;53.90;;;;;;5052899;28;21037;-61
2023/08/25 05:14:58;;;;;;;12.25;4.75;;;35.30;54.30;;;;;;5046608;28;20108;-62
2023/08/25 05:17:24;;;;;;;14.95;4.65;;;35.20;54.40;;;;;;5047452;28;20795;-62
2023/08/25 05:19:52;;;;;;;9.93;4.43;;;35.20;54.90;;;;;;5046796;28;20466;-62
2023/08/25 05:22:19;;;;;;;14.02;4.68;;;35.00;55.30;;;;;;5051106;28;20035;-62
2023/08/25 05:24:45;;;;;;;10.70;4.65;;;35.00;55.60;;;;;;5048732;28;20021;-61
2023/08/25 05:27:11;;;;;;;12.30;5.00;;;34.90;55.60;;;;;;5045247;28;20072;-61
2023/08/25 05:29:38;;;;;;;12.73;4.60;;;34.90;56.20;;;;;;5048045;28;20017;-61
2023/08/25 05:32:04;;;;;;;12.38;4.60;;;34.90;55.80;;;;;;5047053;28;20017;-62
2023/08/25 05:34:31;;;;;;;17.70;4.70;;;34.80;56.00;;;;;;5047678;28;20488;-62
2023/08/25 05:36:57;;;;;;;16.00;4.88;;;34.80;56.10;;;;;;5047427;28;20032;-61
2023/08/25 05:39:24;;;;;;;13.32;4.78;;;34.80;55.80;;;;;;5045145;28;20067;-60
2023/08/25 05:41:50;;;;;;;18.08;5.30;;;34.70;56.20;;;;;;5048847;28;20103;-60
2023/08/25 05:44:17;;;;;;;16.83;4.88;;;34.70;56.10;;;;;;5051044;28;20005;-61
2023/08/25 05:46:44;;;;;;;16.73;4.57;;;34.60;55.60;;;;;;5049054;28;20051;-59
2023/08/25 05:49:10;;;;;;;13.98;4.57;;;34.60;55.90;;;;;;5047879;28;20377;-61
2023/08/25 05:51:36;;;;;;;14.85;4.75;;;34.60;56.10;;;;;;5047115;28;20020;-60
2023/08/25 05:54:03;;;;;;;17.00;4.75;;;34.50;56.00;;;;;;5051412;28;20024;-61
2023/08/25 05:56:29;;;;;;;11.75;4.93;;;34.50;56.10;;;;;;5045979;28;20124;-60
2023/08/25 05:59:00;;;;;;;23.45;5.18;;;34.40;55.50;;;;;;5046572;28;20009;-62
2023/08/25 06:01:26;;;;;;;14.40;4.72;;;34.40;55.80;;;;;;5046341;28;20029;-62
2023/08/25 06:03:52;;;;;;;13.23;4.60;;;34.30;55.70;;;;;;5052572;28;20023;-60
2023/08/25 06:06:19;;;;;;;18.23;5.40;;;34.30;55.80;;;;;;5047128;28;20029;-62
2023/08/25 06:08:45;;;;;;;68.20;7.63;;;34.30;56.30;;;;;;5046134;28;20017;-62
2023/08/25 06:11:13;;;;;;;259.52;23.98;;;34.30;55.70;;;;;;5049992;28;20115;-62
2023/08/25 06:13:40;;;;;;;39.30;7.30;;;34.20;56.00;;;;;;5046659;28;20044;-59
2023/08/25 06:16:08;;;;;;;37.22;7.15;;;34.20;55.90;;;;;;5046902;28;20116;-60
2023/08/25 06:18:34;;;;;;;13.27;4.50;;;34.20;55.50;;;;;;5045841;28;20053;-61
2023/08/25 06:21:01;;;;;;;11.05;4.70;;;34.20;56.10;;;;;;5046680;28;20013;-59
2023/08/25 06:23:27;;;;;;;12.52;4.75;;;34.10;55.50;;;;;;5046242;28;20116;-59
2023/08/25 06:25:54;;;;;;;11.38;5.25;;;34.10;55.30;;;;;;5049835;28;20051;-60
2023/08/25 06:28:20;;;;;;;14.73;5.20;;;34.10;55.10;;;;;;5050570;28;20013;-60
2023/08/25 06:30:50;;;;;;;13.18;4.43;;;34.10;55.00;;;;;;5051855;28;20059;-62
2023/08/25 06:33:16;;;;;;;10.30;4.70;;;34.10;55.40;;;;;;5054061;28;20047;-60
2023/08/25 06:35:43;;;;;;;13.05;4.68;;;34.00;55.50;;;;;;5053300;28;20429;-61
2023/08/25 06:38:09;;;;;;;10.77;4.40;;;34.00;55.20;;;;;;5053288;28;20507;-60
2023/08/25 06:40:36;;;;;;;8.10;4.25;;;34.00;54.90;;;;;;5049644;28;20487;-60
2023/08/25 06:43:03;;;;;;;13.57;4.70;;;33.90;55.10;;;;;;5050578;28;20092;-61
2023/08/25 06:45:30;;;;;;;12.75;4.05;;;33.90;55.50;;;;;;5050847;28;20017;-60
2023/08/25 06:47:57;;;;;;;14.73;4.60;;;33.80;55.80;;;;;;5053545;28;20108;-60
2023/08/25 06:50:24;;;;;;;10.05;4.10;;;33.80;55.70;;;;;;5049366;28;20063;-60
2023/08/25 06:52:50;;;;;;;13.68;4.70;;;33.80;55.60;;;;;;5050463;28;20017;-61
2023/08/25 06:55:18;;;;;;;9.52;4.70;;;33.70;55.90;;;;;;5050905;28;20523;-60
2023/08/25 06:57:46;;;;;;;16.13;5.88;;;33.70;56.70;;;;;;5049712;28;20086;-59
2023/08/25 07:00:13;;;;;;;13.35;5.03;;;33.70;56.90;;;;;;5049969;28;20016;-61
2023/08/25 07:02:43;;;;;;;12.73;4.97;;;33.60;57.20;;;;;;5049543;28;20033;-61
2023/08/25 07:05:11;;;;;;;15.52;4.97;;;33.60;57.90;;;;;;5050138;28;20135;-61
2023/08/25 07:07:37;;;;;;;8.88;4.90;;;33.50;57.30;;;;;;5045283;28;20021;-60
2023/08/25 07:10:04;;;;;;;12.60;4.80;;;33.50;57.50;;;;;;5046994;28;20044;-61
2023/08/25 07:12:31;;;;;;;16.58;5.20;;;33.50;57.80;;;;;;5046115;28;20025;-60
2023/08/25 07:15:01;;;;;;;14.25;5.03;;;33.50;58.00;;;;;;5047174;28;20137;-60
2023/08/25 07:17:29;;;;;;;21.27;6.13;;;33.40;57.80;;;;;;5045327;28;20031;-61
2023/08/25 07:19:55;;;;;;;11.48;5.05;;;33.40;58.10;;;;;;5044358;28;20421;-59
2023/08/25 07:22:21;;;;;;;16.25;5.13;;;33.30;58.00;;;;;;5049022;28;20016;-60
2023/08/25 07:24:50;;;;;;;11.27;5.53;;;33.30;57.80;;;;;;5044186;28;20021;-59
2023/08/25 07:27:17;;;;;;;13.43;5.20;;;33.20;58.10;;;;;;5047581;28;20100;-61
2023/08/25 07:29:43;;;;;;;14.88;5.60;;;33.20;58.40;;;;;;5052247;28;20044;-59
2023/08/25 07:32:09;;;;;;;14.27;5.25;;;33.20;58.50;;;;;;5049682;28;20016;-59
2023/08/25 07:34:36;;;;;;;18.08;5.63;;;33.20;58.60;;;;;;5051405;28;20123;-59
2023/08/25 07:37:03;;;;;;;15.32;5.57;;;33.10;58.50;;;;;;5050288;28;20021;-60
2023/08/25 07:39:29;;;;;;;13.93;5.28;;;33.10;58.40;;;;;;5048466;28;20050;-59
2023/08/25 07:41:56;;;;;;;10.88;5.35;;;33.00;58.70;;;;;;5048045;28;20047;-59
2023/08/25 07:44:22;;;;;;;15.27;5.15;;;33.00;58.40;;;;;;5051822;28;20192;-61
2023/08/25 07:46:49;;;;;;;21.85;5.40;;;33.00;58.40;;;;;;5049280;28;20047;-59
2023/08/25 07:49:15;;;;;;;10.13;4.75;;;33.00;58.50;;;;;;5050906;28;20598;-60
2023/08/25 07:51:41;;;;;;;14.25;5.30;;;33.00;57.70;;;;;;5050693;28;20057;-60
2023/08/25 07:54:08;;;;;;;14.07;5.18;;;33.00;57.80;;;;;;5049580;28;20065;-60
2023/08/25 07:56:34;;;;;;;15.02;4.75;;;33.00;57.60;;;;;;5053667;28;20059;-58
2023/08/25 07:59:01;;;;;;;14.18;5.28;;;33.00;57.90;;;;;;5059080;28;20395;-60
2023/08/25 08:01:27;;;;;;;17.05;4.80;;;33.00;58.10;;;;;;5056015;28;20033;-61
2023/08/25 08:03:53;;;;;;;18.70;5.43;;;33.00;58.20;;;;;;5054531;28;20055;-58
2023/08/25 08:06:20;;;;;;;14.00;5.40;;;32.90;58.00;;;;;;5047352;28;20097;-60
2023/08/25 08:08:48;;;;;;;14.18;4.93;;;32.90;57.70;;;;;;5049006;28;20518;-59
2023/08/25 08:11:14;;;;;;;15.95;5.32;;;32.90;57.10;;;;;;5049486;28;20036;-61
2023/08/25 08:13:41;;;;;;;12.27;4.70;;;32.90;57.00;;;;;;5048545;28;20129;-60
2023/08/25 08:16:07;;;;;;;12.45;4.55;;;32.90;57.10;;;;;;5047943;28;20239;-61
2023/08/25 08:18:34;;;;;;;13.40;4.65;;;32.80;56.00;;;;;;5048498;28;20041;-61
2023/08/25 08:21:00;;;;;;;11.60;4.22;;;32.70;55.30;;;;;;5049085;28;20039;-59
2023/08/25 08:23:26;;;;;;;9.43;4.28;;;32.70;55.90;;;;;;5049547;28;20040;-60
2023/08/25 08:25:54;;;;;;;14.77;4.28;;;32.60;56.70;;;;;;5050101;28;20043;-59
2023/08/25 08:28:20;;;;;;;8.25;3.97;;;32.60;56.30;;;;;;5048457;28;20009;-61
2023/08/25 08:30:47;;;;;;;10.05;4.03;;;32.60;56.60;;;;;;5048416;28;20123;-61
2023/08/25 08:33:13;;;;;;;17.58;4.30;;;32.50;57.00;;;;;;5049239;28;20410;-62
2023/08/25 08:35:40;;;;;;;10.35;4.22;;;32.50;57.20;;;;;;5050660;28;20039;-60
2023/08/25 08:38:07;;;;;;;9.85;3.83;;;32.30;57.60;;;;;;5048869;28;20044;-59
2023/08/25 08:40:35;;;;;;;12.70;4.40;;;32.20;57.20;;;;;;5049917;28;20055;-61
2023/08/25 08:43:04;;;;;;;14.00;4.28;;;32.10;58.20;;;;;;5051002;28;20126;-62
2023/08/25 08:45:35;;;;;;;11.68;3.80;;;32.10;57.80;;;;;;5050832;28;20047;-60
2023/08/25 08:48:04;;;;;;;8.00;4.18;;;32.00;56.40;;;;;;5049567;28;20130;-61
2023/08/25 08:50:35;;;;;;;7.00;3.70;;;32.00;56.90;;;;;;5046006;28;20510;-60
2023/08/25 08:53:04;;;;;;;10.40;3.45;;;32.10;56.20;;;;;;5046598;28;20456;-60
2023/08/25 08:55:32;;;;;;;11.60;3.38;;;32.10;55.30;;;;;;5054537;28;20049;-60
2023/08/25 08:57:59;;;;;;;7.80;3.40;;;32.00;55.00;;;;;;5048364;28;20114;-61
2023/08/25 09:00:27;;;;;;;6.80;3.15;;;32.00;53.90;;;;;;5055501;28;20019;-60
2023/08/25 09:02:54;;;;;;;9.18;3.45;;;32.00;53.40;;;;;;5050996;28;20078;-59
2023/08/25 09:05:30;;;;;;;6.05;3.35;;;32.00;53.60;;;;;;5047794;28;20145;-61
2023/08/25 09:08:08;;;;;;;11.45;3.08;;;32.00;53.10;;;;;;5055520;28;20048;-59
2023/08/25 09:10:34;;;;;;;11.70;3.58;;;32.00;52.80;;;;;;5051770;28;20565;-61
2023/08/25 09:13:01;;;;;;;8.35;3.20;;;32.00;53.00;;;;;;5050168;28;20059;-60
2023/08/25 09:15:30;;;;;;;7.63;2.70;;;32.00;53.10;;;;;;5052418;28;20121;-60
2023/08/25 09:18:03;;;;;;;6.95;2.70;;;31.90;53.30;;;;;;5049843;28;20059;-59
2023/08/25 09:20:35;;;;;;;5.45;2.63;;;31.90;52.30;;;;;;5046385;28;20066;-61
2023/08/25 09:23:02;;;;;;;10.13;3.17;;;31.90;51.60;;;;;;5052211;28;20558;-60
2023/08/25 09:25:29;;;;;;;7.28;2.65;;;31.90;52.00;;;;;;5050599;28;20056;-61
2023/08/25 09:28:01;;;;;;;6.68;3.00;;;31.90;51.30;;;;;;5052913;28;20053;-60
2023/08/25 09:30:37;;;;;;;5.85;2.92;;;31.90;51.80;;;;;;5051603;28;20060;-60
2023/08/25 09:33:07;;;;;;;;;;;31.90;51.90;;;;;;5049268;28;20230;-60
2023/08/25 09:35:34;;;;;;;7.63;2.85;;;31.80;52.40;;;;;;5050751;28;19912;-60
2023/08/25 09:38:00;;;;;;;6.93;2.90;;;31.80;52.70;;;;;;5048194;28;20051;-58
2023/08/25 09:40:27;;;;;;;6.90;2.60;;;31.90;52.80;;;;;;5047834;28;20102;-58
2023/08/25 09:43:01;;;;;;;8.23;3.00;;;31.90;52.50;;;;;;5048337;28;20045;-60
2023/08/25 09:45:29;;;;;;;7.72;3.28;;;31.90;51.80;;;;;;5048666;28;20043;-55
2023/08/25 09:48:06;;;;;;;7.13;2.50;;;32.00;52.60;;;;;;5046651;28;20016;-58
2023/08/25 09:50:43;;;;;;;7.05;2.40;;;32.00;52.50;;;;;;5046838;28;20047;-55
2023/08/25 09:53:13;;;;;;;8.13;2.60;;;32.00;51.20;;;;;;5049365;28;20021;-58
2023/08/25 09:55:40;;;;;;;7.85;2.72;;;32.00;51.90;;;;;;5047015;28;20024;-58
2023/08/25 09:58:08;;;;;;;6.05;2.80;;;31.90;51.50;;;;;;5047483;28;20013;-56
2023/08/25 10:00:39;;;;;;;6.88;2.40;;;31.90;52.00;;;;;;5046270;28;20042;-55
2023/08/25 10:03:10;;;;;;;11.15;2.78;;;32.00;52.20;;;;;;5051757;28;20128;-59
2023/08/25 10:05:38;;;;;;;10.65;2.65;;;31.90;52.10;;;;;;5047403;28;20525;-58
2023/08/25 10:08:07;;;;;;;2.85;2.05;;;31.90;51.00;;;;;;5046888;28;20024;-58
2023/08/25 10:10:36;;;;;;;9.15;2.22;;;31.90;51.20;;;;;;5046098;28;20021;-58
2023/08/25 10:13:04;;;;;;;9.35;2.58;;;31.90;50.80;;;;;;5044857;28;20028;-58
2023/08/25 10:15:32;;;;;;;17.48;2.70;;;31.70;50.80;;;;;;5046966;28;20413;-57
2023/08/25 10:18:03;;;;;;;18.25;2.90;;;31.80;51.00;;;;;;5048882;28;20162;-59
2023/08/25 10:20:37;;;;;;;6.57;2.40;;;31.80;52.50;;;;;;5045715;28;20400;-59
2023/08/25 10:23:05;;;;;;;7.38;2.03;;;31.70;51.80;;;;;;5051827;28;20014;-60
2023/08/25 10:25:32;;;;;;;6.57;2.30;;;31.70;52.60;;;;;;5047539;28;20090;-58
2023/08/25 10:28:00;;;;;;;3.70;2.05;;;31.70;51.50;;;;;;5047771;28;20028;-59
2023/08/25 10:30:28;;;;;;;9.13;2.35;;;31.60;51.20;;;;;;5047868;28;20018;-59
2023/08/25 10:33:11;;;;;;;3.45;2.00;;;31.60;52.10;;;;;;5048291;28;20065;-60
2023/08/25 10:35:46;;;;;;;5.03;2.25;;;31.60;51.80;;;;;;5046025;28;20438;-60
2023/08/25 10:38:18;;;;;;;6.10;2.40;;;31.50;52.40;;;;;;5045822;28;20021;-58
2023/08/25 10:40:56;;;;;;;7.55;2.45;;;31.50;52.70;;;;;;5050212;28;20046;-62
2023/08/25 10:43:28;;;;;;;5.32;2.05;;;31.40;52.80;;;;;;5047633;28;20595;-58
2023/08/25 10:45:55;;;;;;;8.00;2.55;;;31.40;54.30;;;;;;5053096;28;20047;-59
2023/08/25 10:48:25;;;;;;;7.00;2.78;;;31.30;54.10;;;;;;5046152;28;20089;-59
2023/08/25 10:51:11;;;;;;;11.95;2.45;;;31.20;54.70;;;;;;5047826;28;20094;-57
2023/08/25 10:53:50;;;;;;;6.05;2.30;;;31.20;54.50;;;;;;5049384;28;20089;-60
2023/08/25 10:56:22;;;;;;;8.10;2.58;;;31.20;54.10;;;;;;5047917;28;20065;-61
2023/08/25 10:59:09;;;;;;;8.15;3.00;;;31.20;54.60;;;;;;5050946;28;20049;-55
2023/08/25 11:01:39;;;;;;;9.02;2.35;;;31.10;53.90;;;;;;5047197;28;20182;-59
2023/08/25 11:04:12;;;;;;;6.82;2.33;;;31.00;54.40;;;;;;5049270;28;20035;-61
2023/08/25 11:06:41;;;;;;;6.40;2.50;;;31.00;53.20;;;;;;5044180;28;20060;-57
2023/08/25 11:09:35;;;;;;;10.55;2.60;;;31.00;53.20;;;;;;5045921;28;20045;-58
2023/08/25 11:12:07;;;;;;;6.78;2.20;;;31.00;53.30;;;;;;5047979;28;20527;-59
2023/08/25 11:14:36;;;;;;;6.32;2.50;;;31.00;53.20;;;;;;5050493;28;20049;-57
2023/08/25 11:17:11;;;;;;;8.07;2.40;;;31.00;53.30;;;;;;5048879;28;20053;-59
2023/08/25 11:19:39;;;;;;;7.18;2.30;;;31.00;53.70;;;;;;5053776;28;20054;-58
2023/08/25 11:22:12;;;;;;;5.82;2.55;;;31.00;53.90;;;;;;5053440;28;20077;-58
2023/08/25 11:24:39;;;;;;;6.13;2.42;;;30.90;55.20;;;;;;5053384;28;20043;-58
2023/08/25 11:27:09;;;;;;;9.23;2.47;;;30.90;54.70;;;;;;5049536;28;20090;-56
2023/08/25 11:29:36;;;;;;;8.20;2.10;;;30.90;54.50;;;;;;5049921;28;20058;-62
2023/08/25 11:32:03;;;;;;;4.78;2.35;;;30.80;54.90;;;;;;5049317;28;20068;-57
2023/08/25 11:34:31;;;;;;;5.13;2.70;;;30.80;55.80;;;;;;5049659;28;20041;-57
2023/08/25 11:36:57;;;;;;;6.47;2.47;;;30.70;54.70;;;;;;5052158;28;20137;-58
2023/08/25 11:39:24;;;;;;;12.60;3.08;;;30.70;54.80;;;;;;5049211;28;20035;-59
2023/08/25 11:41:55;;;;;;;7.57;2.22;;;30.70;56.00;;;;;;5049243;28;20125;-58
2023/08/25 11:44:23;;;;;;;6.10;2.60;;;30.60;55.20;;;;;;5052758;28;20036;-57
2023/08/25 11:46:52;;;;;;;8.55;2.42;;;30.60;55.80;;;;;;5048508;28;20044;-57
2023/08/25 11:49:22;;;;;;;9.27;3.20;;;30.60;55.60;;;;;;5048353;28;20519;-56
2023/08/25 11:51:54;;;;;;;7.18;2.58;;;30.60;55.00;;;;;;5049523;28;20046;-57
2023/08/25 11:54:21;;;;;;;92.60;5.47;;;30.60;54.40;;;;;;5047871;28;20067;-57
2023/08/25 11:56:53;;;;;;;29.13;3.33;;;30.60;54.20;;;;;;5047694;28;20056;-56
2023/08/25 11:59:20;;;;;;;8.10;2.40;;;30.60;54.10;;;;;;5047922;28;20048;-56
2023/08/25 12:01:49;;;;;;;16.13;2.75;;;30.60;53.90;;;;;;5051183;28;20070;-59
2023/08/25 12:04:26;;;;;;;8.75;2.30;;;30.50;54.50;;;;;;5047870;28;20043;-59
2023/08/25 12:06:57;;;;;;;9.05;2.70;;;30.60;55.20;;;;;;5050402;28;20233;-59
2023/08/25 12:09:25;;;;;;;6.60;2.47;;;30.50;56.20;;;;;;5049816;28;20060;-57
2023/08/25 12:11:56;;;;;;;9.25;2.42;;;30.50;55.80;;;;;;5050428;28;20086;-58
2023/08/25 12:14:25;;;;;;;4.35;2.25;;;30.40;55.70;;;;;;5047190;28;20120;-57
2023/08/25 12:16:51;;;;;;;13.13;2.45;;;30.40;55.40;;;;;;5046518;28;20060;-60
2023/08/25 12:19:18;;;;;;;11.57;2.28;;;30.40;55.60;;;;;;5046982;28;20656;-58
2023/08/25 12:21:49;;;;;;;13.10;3.25;;;30.30;55.60;;;;;;5050041;28;20071;-56
2023/08/25 12:24:15;;;;;;;6.30;2.58;;;30.30;56.50;;;;;;5046921;28;20136;-57
2023/08/25 12:26:42;;;;;;;8.05;2.42;;;30.30;56.30;;;;;;5048185;28;20044;-58
2023/08/25 12:29:08;;;;;;;6.35;2.33;;;30.30;56.10;;;;;;5047619;28;20139;-58
2023/08/25 12:31:35;;;;;;;13.15;2.95;;;30.30;55.90;;;;;;5048323;28;20180;-59
2023/08/25 12:34:01;;;;;;;7.53;2.60;;;30.20;56.00;;;;;;5047825;28;20054;-59
2023/08/25 12:36:28;;;;;;;8.00;2.25;;;30.20;56.10;;;;;;5048307;28;20068;-58
2023/08/25 12:38:54;;;;;;;8.23;2.22;;;30.20;56.70;;;;;;5049103;28;20098;-56
2023/08/25 12:41:21;;;;;;;5.55;2.60;;;30.20;56.80;;;;;;5046976;28;20406;-57
2023/08/25 12:43:47;;;;;;;11.82;2.92;;;30.20;58.40;;;;;;5051749;28;20052;-56
2023/08/25 12:46:14;;;;;;;16.10;3.50;;;30.10;58.00;;;;;;5047285;28;20127;-55